Terminal Aerodrome Forecast
Issued by NWS

Current Version | Previous Version | Text Only | Print | Product List | Glossary On
Versions: 1 2 3 4 5 6 7 8 9 10 11 12 13 14 15 16
389
FTUS42 KMHX 222331
TAFOAJ
TAF
KOAJ 222331Z 2300/2324 20005KT P6SM SCT250
     FM230900 22005KT 5SM BR SCT100
     FM231300 22008G16KT P6SM BKN150
     FM231800 22008KT P6SM VCTS SCT050CB
      AMD LTD TO CLD VIS AND WIND=

USA.gov is the U.S. government's official web portal to all federal, state and local government web resources and services.